Time,TemperatureF,DewpointF,PressureIn,WindDirection,WindDirectionDegrees,WindSpeedMPH,WindSpeedGustMPH,Humidity,HourlyPrecipIn,Conditions,Clouds,dailyrainin,SoftwareType,DateUTC
2013-09-13 00:02:00,58.3,56.8,29.93,WNW,293,4.0,6.0,95,0.00,,,0.00,meteohub,2013-09-13 07:02:00,
2013-09-13 00:07:00,58.3,56.8,29.92,NW,326,1.0,6.0,95,0.00,,,0.00,meteohub,2013-09-13 07:07:00,
2013-09-13 00:12:00,58.3,56.8,29.92,NNW,327,0.0,10.0,95,0.00,,,0.00,meteohub,2013-09-13 07:12:00,
2013-09-13 00:17:00,58.3,56.8,29.92,NNW,332,1.0,10.0,95,0.00,,,0.00,meteohub,2013-09-13 07:17:00,
2013-09-13 00:22:00,58.3,56.8,29.92,WNW,282,2.0,10.0,95,0.00,,,0.00,meteohub,2013-09-13 07:22:00,
2013-09-13 00:27:00,58.3,56.8,29.92,North,6,0.0,10.0,95,0.00,,,0.00,meteohub,2013-09-13 07:27:00,
2013-09-13 00:32:00,58.1,56.7,29.92,North,356,1.0,10.0,95,0.00,,,0.00,meteohub,2013-09-13 07:32:00,
2013-09-13 00:37:00,58.1,56.7,29.92,North,356,5.0,8.0,95,0.00,,,0.00,meteohub,2013-09-13 07:37:00,
2013-09-13 00:42:00,57.9,56.5,29.92,NNE,16,2.0,9.0,95,0.00,,,0.00,meteohub,2013-09-13 07:42:00,
2013-09-13 00:47:00,58.1,56.7,29.91,NNW,328,2.0,9.0,95,0.00,,,0.00,meteohub,2013-09-13 07:47:00,
2013-09-13 00:52:00,57.9,56.5,29.91,NW,313,2.0,9.0,95,0.00,,,0.00,meteohub,2013-09-13 07:52:00,
2013-09-13 00:57:00,57.9,56.5,29.92,North,5,2.0,7.0,95,0.00,,,0.00,meteohub,2013-09-13 07:57:00,
2013-09-13 01:02:00,57.9,56.5,29.92,NNE,26,4.0,7.0,95,0.00,,,0.00,meteohub,2013-09-13 08:02:00,
2013-09-13 01:07:00,57.7,56.3,29.91,NNE,15,2.0,7.0,95,0.00,,,0.00,meteohub,2013-09-13 08:07:00,
2013-09-13 01:12:00,57.7,56.3,29.91,NNW,342,4.0,9.0,95,0.00,,,0.00,meteohub,2013-09-13 08:12:00,
2013-09-13 01:17:00,57.7,56.3,29.91,North,1,4.0,9.0,95,0.00,,,0.00,meteohub,2013-09-13 08:17:00,
2013-09-13 01:22:00,57.7,56.7,29.92,NNW,328,2.0,9.0,96,0.00,,,0.00,meteohub,2013-09-13 08:22:00,
2013-09-13 01:27:00,57.7,56.3,29.91,NNW,340,3.0,9.0,95,0.00,,,0.00,meteohub,2013-09-13 08:27:00,
2013-09-13 01:32:00,57.7,56.7,29.91,North,349,5.0,8.0,96,0.00,,,0.00,meteohub,2013-09-13 08:32:00,
2013-09-13 01:37:00,57.7,56.7,29.91,WNW,294,2.0,10.0,96,0.00,,,0.00,meteohub,2013-09-13 08:37:00,
2013-09-13 01:42:00,57.7,56.3,29.91,NNE,33,3.0,10.0,95,0.00,,,0.00,meteohub,2013-09-13 08:42:00,
2013-09-13 01:47:00,57.7,56.7,29.92,NNW,339,2.0,9.0,96,0.00,,,0.00,meteohub,2013-09-13 08:47:00,
2013-09-13 01:52:00,57.7,56.7,29.92,NNE,23,4.0,9.0,96,0.00,,,0.00,meteohub,2013-09-13 08:52:00,
2013-09-13 01:57:00,57.7,56.7,29.92,NNE,23,2.0,9.0,96,0.00,,,0.00,meteohub,2013-09-13 08:57:00,
2013-09-13 02:03:00,57.9,56.8,29.92,North,349,4.0,9.0,96,0.00,,,0.00,meteohub,2013-09-13 09:03:00,
2013-09-13 02:08:00,57.9,56.8,29.92,WNW,302,1.0,9.0,96,0.00,,,0.00,meteohub,2013-09-13 09:08:00,
2013-09-13 02:13:00,57.9,56.8,29.92,North,356,5.0,10.0,96,0.00,,,0.00,meteohub,2013-09-13 09:13:00,
2013-09-13 02:18:00,57.9,56.8,29.92,NNE,15,9.0,10.0,96,0.00,,,0.00,meteohub,2013-09-13 09:18:00,
2013-09-13 02:23:00,57.7,56.7,29.92,North,11,6.0,12.0,96,0.00,,,0.00,meteohub,2013-09-13 09:23:00,
2013-09-13 02:28:00,57.7,56.7,29.92,NW,319,4.0,12.0,96,0.00,,,0.00,meteohub,2013-09-13 09:28:00,
2013-09-13 02:33:00,57.9,56.8,29.91,NNW,334,3.0,12.0,96,0.00,,,0.00,meteohub,2013-09-13 09:33:00,
2013-09-13 02:38:00,57.9,56.8,29.91,North,356,1.0,11.0,96,0.00,,,0.00,meteohub,2013-09-13 09:38:00,
2013-09-13 02:43:00,57.9,56.8,29.91,NNW,342,3.0,11.0,96,0.00,,,0.00,meteohub,2013-09-13 09:43:00,
2013-09-13 02:48:00,57.7,56.7,29.91,NW,316,2.0,11.0,96,0.00,,,0.00,meteohub,2013-09-13 09:48:00,
2013-09-13 02:53:00,57.7,56.7,29.91,NNE,19,3.0,13.0,96,0.00,,,0.00,meteohub,2013-09-13 09:53:00,
2013-09-13 02:59:00,57.7,56.7,29.91,North,356,6.0,13.0,96,0.00,,,0.00,meteohub,2013-09-13 09:59:00,
2013-09-13 03:04:00,57.6,56.5,29.91,North,4,6.0,13.0,96,0.00,,,0.00,meteohub,2013-09-13 10:04:00,
2013-09-13 03:09:00,57.6,56.5,29.91,NNW,334,2.0,11.0,96,0.00,,,0.00,meteohub,2013-09-13 10:09:00,
2013-09-13 03:14:00,57.4,56.3,29.91,North,6,6.0,11.0,96,0.00,,,0.00,meteohub,2013-09-13 10:14:00,
2013-09-13 03:19:00,57.4,55.9,29.91,North,11,7.0,12.0,95,0.00,,,0.00,meteohub,2013-09-13 10:19:00,
2013-09-13 03:24:00,57.4,55.9,29.91,WNW,302,5.0,12.0,95,0.00,,,0.00,meteohub,2013-09-13 10:24:00,
2013-09-13 03:29:00,57.4,55.9,29.91,North,1,13.0,13.0,95,0.00,,,0.00,meteohub,2013-09-13 10:29:00,
2013-09-13 03:34:00,57.4,55.9,29.90,North,11,6.0,11.0,95,0.00,,,0.00,meteohub,2013-09-13 10:34:00,
2013-09-13 03:39:00,57.4,55.9,29.90,NNE,20,10.0,13.0,95,0.00,,,0.00,meteohub,2013-09-13 10:39:00,
2013-09-13 03:44:00,57.2,55.8,29.90,NNE,25,5.0,13.0,95,0.00,,,0.00,meteohub,2013-09-13 10:44:00,
2013-09-13 03:49:00,57.4,55.9,29.90,NNE,29,0.0,12.0,95,0.00,,,0.00,meteohub,2013-09-13 10:49:00,
2013-09-13 03:55:00,57.4,55.9,29.90,NW,305,3.0,12.0,95,0.00,,,0.00,meteohub,2013-09-13 10:55:00,
2013-09-13 04:00:00,57.6,56.5,29.90,NE,34,4.0,12.0,96,0.00,,,0.00,meteohub,2013-09-13 11:00:00,
2013-09-13 04:05:00,57.6,56.1,29.90,North,11,4.0,12.0,95,0.00,,,0.00,meteohub,2013-09-13 11:05:00,
2013-09-13 04:10:00,57.6,56.1,29.90,NW,312,2.0,12.0,95,0.00,,,0.00,meteohub,2013-09-13 11:10:00,
2013-09-13 04:15:00,57.6,56.1,29.90,NNW,338,8.0,12.0,95,0.00,,,0.00,meteohub,2013-09-13 11:15:00,
2013-09-13 04:20:00,57.7,56.3,29.90,NNE,23,7.0,10.0,95,0.00,,,0.00,meteohub,2013-09-13 11:20:00,
2013-09-13 04:25:00,57.6,56.1,29.90,North,356,5.0,10.0,95,0.00,,,0.00,meteohub,2013-09-13 11:25:00,
2013-09-13 04:30:00,57.7,56.3,29.90,NNW,330,2.0,9.0,95,0.00,,,0.00,meteohub,2013-09-13 11:30:00,
2013-09-13 04:35:00,57.7,56.3,29.90,NNW,342,3.0,9.0,95,0.00,,,0.00,meteohub,2013-09-13 11:35:00,
2013-09-13 04:40:00,57.7,56.3,29.90,NW,321,1.0,9.0,95,0.00,,,0.00,meteohub,2013-09-13 11:40:00,
2013-09-13 04:46:00,57.7,55.9,29.90,NNE,20,3.0,8.0,94,0.00,,,0.00,meteohub,2013-09-13 11:46:00,
2013-09-13 04:51:00,57.7,55.9,29.90,NNW,345,3.0,8.0,94,0.00,,,0.00,meteohub,2013-09-13 11:51:00,
2013-09-13 04:56:00,57.7,55.9,29.90,NNW,340,2.0,4.0,94,0.00,,,0.00,meteohub,2013-09-13 11:56:00,
2013-09-13 05:01:00,57.7,55.9,29.90,NW,316,3.0,6.0,94,0.00,,,0.00,meteohub,2013-09-13 12:01:00,
2013-09-13 05:06:00,57.7,55.9,29.90,NW,314,1.0,6.0,94,0.00,,,0.00,meteohub,2013-09-13 12:06:00,
2013-09-13 05:11:00,57.7,55.9,29.90,North,1,0.0,4.0,94,0.00,,,0.00,meteohub,2013-09-13 12:11:00,
2013-09-13 05:16:00,57.9,56.1,29.90,North,352,2.0,3.0,94,0.00,,,0.00,meteohub,2013-09-13 12:16:00,
2013-09-13 05:21:00,57.9,55.9,29.89,North,8,2.0,3.0,93,0.00,,,0.00,meteohub,2013-09-13 12:21:00,
2013-09-13 05:26:00,57.9,55.9,29.89,NNE,32,3.0,5.0,93,0.00,,,0.00,meteohub,2013-09-13 12:26:00,
2013-09-13 05:31:00,57.9,55.9,29.89,North,1,1.0,5.0,93,0.00,,,0.00,meteohub,2013-09-13 12:31:00,
2013-09-13 05:36:00,57.9,55.9,29.90,North,350,2.0,5.0,93,0.00,,,0.00,meteohub,2013-09-13 12:36:00,
2013-09-13 05:42:00,57.9,55.9,29.90,NW,326,1.0,5.0,93,0.00,,,0.00,meteohub,2013-09-13 12:42:00,
2013-09-13 05:47:00,57.9,55.9,29.90,NW,315,2.0,7.0,93,0.00,,,0.00,meteohub,2013-09-13 12:47:00,
2013-09-13 05:52:00,57.9,55.9,29.90,NNW,345,1.0,7.0,93,0.00,,,0.00,meteohub,2013-09-13 12:52:00,
2013-09-13 05:57:00,57.9,55.9,29.90,NNW,346,1.0,5.0,93,0.00,,,0.00,meteohub,2013-09-13 12:57:00,
2013-09-13 06:02:00,57.9,55.9,29.90,North,11,2.0,5.0,93,0.00,,,0.00,meteohub,2013-09-13 13:02:00,
2013-09-13 06:07:00,57.9,55.9,29.90,NNW,342,1.0,7.0,93,0.00,,,0.00,meteohub,2013-09-13 13:07:00,
2013-09-13 06:12:00,57.9,55.9,29.90,NNE,18,4.0,7.0,93,0.00,,,0.00,meteohub,2013-09-13 13:12:00,
2013-09-13 06:17:00,57.7,55.8,29.90,NE,46,1.0,7.0,93,0.00,,,0.00,meteohub,2013-09-13 13:17:00,
2013-09-13 06:22:00,57.7,55.8,29.90,West,264,1.0,6.0,93,0.00,,,0.00,meteohub,2013-09-13 13:22:00,
2013-09-13 06:27:00,57.6,55.6,29.90,NNE,22,2.0,6.0,93,0.00,,,0.00,meteohub,2013-09-13 13:27:00,
2013-09-13 06:32:00,57.6,55.6,29.90,NNE,23,2.0,5.0,93,0.00,,,0.00,meteohub,2013-09-13 13:32:00,
2013-09-13 06:37:00,57.6,55.6,29.90,North,7,1.0,5.0,93,0.00,,,0.00,meteohub,2013-09-13 13:37:00,
2013-09-13 06:42:00,57.4,55.4,29.90,North,1,0.0,4.0,93,0.00,,,0.00,meteohub,2013-09-13 13:42:00,
2013-09-13 06:47:00,57.4,55.4,29.90,North,5,2.0,7.0,93,0.00,,,0.00,meteohub,2013-09-13 13:47:00,
2013-09-13 06:52:00,57.0,55.0,29.91,North,352,3.0,7.0,93,0.00,,,0.00,meteohub,2013-09-13 13:52:00,
2013-09-13 06:57:00,57.0,55.0,29.91,North,9,2.0,7.0,93,0.00,,,0.00,meteohub,2013-09-13 13:57:00,
2013-09-13 07:02:00,56.8,54.9,29.91,North,0,3.0,6.0,93,0.00,,,0.00,meteohub,2013-09-13 14:02:00,
2013-09-13 07:07:00,56.7,55.0,29.91,NNW,340,3.0,6.0,94,0.00,,,0.00,meteohub,2013-09-13 14:07:00,
2013-09-13 07:12:00,56.5,54.9,29.91,NNE,22,3.0,7.0,94,0.00,,,0.00,meteohub,2013-09-13 14:12:00,
2013-09-13 07:17:00,56.5,54.9,29.91,NW,326,5.0,7.0,94,0.00,,,0.00,meteohub,2013-09-13 14:17:00,
2013-09-13 07:22:00,56.5,54.9,29.91,NNE,30,4.0,11.0,94,0.00,,,0.00,meteohub,2013-09-13 14:22:00,
2013-09-13 07:27:00,56.5,54.9,29.91,NNW,328,5.0,11.0,94,0.00,,,0.00,meteohub,2013-09-13 14:27:00,
2013-09-13 07:32:00,56.5,55.0,29.91,NNW,334,3.0,11.0,95,0.00,,,0.00,meteohub,2013-09-13 14:32:00,
2013-09-13 07:37:00,56.5,55.0,29.91,North,8,5.0,7.0,95,0.00,,,0.00,meteohub,2013-09-13 14:37:00,
2013-09-13 07:42:00,56.5,55.0,29.91,North,7,2.0,8.0,95,0.00,,,0.00,meteohub,2013-09-13 14:42:00,
2013-09-13 07:47:00,56.3,54.9,29.91,NNW,347,1.0,8.0,95,0.00,,,0.00,meteohub,2013-09-13 14:47:00,
2013-09-13 07:52:00,56.3,54.7,29.91,North,4,7.0,11.0,94,0.00,,,0.00,meteohub,2013-09-13 14:52:00,
2013-09-13 07:57:00,56.5,55.0,29.91,North,352,1.0,11.0,95,0.00,,,0.00,meteohub,2013-09-13 14:57:00,
2013-09-13 08:02:00,56.5,54.9,29.91,South,176,0.0,11.0,94,0.00,,,0.00,meteohub,2013-09-13 15:02:00,
2013-09-13 08:07:00,56.5,54.9,29.91,NW,307,2.0,7.0,94,0.00,,,0.00,meteohub,2013-09-13 15:07:00,
2013-09-13 08:12:00,56.5,54.9,29.91,North,11,4.0,5.0,94,0.00,,,0.00,meteohub,2013-09-13 15:12:00,
2013-09-13 08:17:00,56.5,54.9,29.91,ENE,65,1.0,6.0,94,0.00,,,0.00,meteohub,2013-09-13 15:17:00,
2013-09-13 08:22:00,56.5,54.9,29.91,North,350,4.0,7.0,94,0.00,,,0.00,meteohub,2013-09-13 15:22:00,
2013-09-13 08:27:00,56.5,55.0,29.91,WNW,295,3.0,8.0,95,0.00,,,0.00,meteohub,2013-09-13 15:27:00,
2013-09-13 08:32:00,56.5,54.9,29.91,NW,305,1.0,8.0,94,0.00,,,0.00,meteohub,2013-09-13 15:32:00,
2013-09-13 08:37:00,56.5,54.9,29.91,North,349,3.0,8.0,94,0.00,,,0.00,meteohub,2013-09-13 15:37:00,
2013-09-13 08:42:00,56.3,54.9,29.91,NNE,16,3.0,7.0,95,0.00,,,0.00,meteohub,2013-09-13 15:42:00,
2013-09-13 08:47:00,56.3,54.7,29.91,North,1,4.0,10.0,94,0.00,,,0.00,meteohub,2013-09-13 15:47:00,
2013-09-13 08:52:00,56.3,54.7,29.91,North,8,1.0,10.0,94,0.00,,,0.00,meteohub,2013-09-13 15:52:00,
2013-09-13 08:57:00,56.5,54.9,29.91,West,266,1.0,10.0,94,0.00,,,0.00,meteohub,2013-09-13 15:57:00,
2013-09-13 09:02:00,56.7,54.7,29.91,NNW,332,1.0,10.0,93,0.00,,,0.00,meteohub,2013-09-13 16:02:00,
2013-09-13 09:07:00,56.7,54.7,29.91,East,82,0.0,10.0,93,0.00,,,0.00,meteohub,2013-09-13 16:07:00,
2013-09-13 09:12:00,57.0,55.0,29.91,North,352,2.0,10.0,93,0.00,,,0.00,meteohub,2013-09-13 16:12:00,
2013-09-13 09:17:00,57.0,55.0,29.91,ENE,60,3.0,11.0,93,0.00,,,0.00,meteohub,2013-09-13 16:17:00,
2013-09-13 09:22:00,57.0,55.0,29.91,NE,34,4.0,11.0,93,0.00,,,0.00,meteohub,2013-09-13 16:22:00,
2013-09-13 09:27:00,57.0,55.0,29.91,NNE,27,3.0,11.0,93,0.00,,,0.00,meteohub,2013-09-13 16:27:00,
2013-09-13 09:32:00,57.2,54.9,29.91,ENE,70,2.0,9.0,92,0.00,,,0.00,meteohub,2013-09-13 16:32:00,
2013-09-13 09:38:00,57.4,55.0,29.91,North,353,2.0,9.0,92,0.00,,,0.00,meteohub,2013-09-13 16:38:00,
2013-09-13 09:43:00,57.4,55.0,29.91,North,11,4.0,6.0,92,0.00,,,0.00,meteohub,2013-09-13 16:43:00,
2013-09-13 09:48:00,57.4,55.0,29.91,NNW,342,3.0,6.0,92,0.00,,,0.00,meteohub,2013-09-13 16:48:00,
2013-09-13 09:53:00,57.6,55.2,29.91,NNW,348,5.0,9.0,92,0.00,,,0.00,meteohub,2013-09-13 16:53:00,
2013-09-13 09:58:00,57.7,55.4,29.91,ESE,122,1.0,10.0,92,0.00,,,0.00,meteohub,2013-09-13 16:58:00,
2013-09-13 10:03:00,57.9,55.2,29.91,NE,44,3.0,10.0,91,0.00,,,0.00,meteohub,2013-09-13 17:03:00,
2013-09-13 10:08:00,57.9,55.2,29.91,NNW,335,3.0,12.0,91,0.00,,,0.00,meteohub,2013-09-13 17:08:00,
2013-09-13 10:13:00,58.3,55.9,29.91,North,11,8.0,12.0,92,0.00,,,0.00,meteohub,2013-09-13 17:13:00,
2013-09-13 10:19:00,58.5,56.1,29.91,NNE,16,3.0,12.0,92,0.00,,,0.00,meteohub,2013-09-13 17:19:00,
2013-09-13 10:24:00,58.6,55.9,29.91,NE,35,1.0,10.0,91,0.00,,,0.00,meteohub,2013-09-13 17:24:00,
2013-09-13 10:29:00,59.2,56.5,29.91,NNW,328,5.0,9.0,91,0.00,,,0.00,meteohub,2013-09-13 17:29:00,
2013-09-13 10:34:00,59.4,56.1,29.91,WNW,287,1.0,9.0,89,0.00,,,0.00,meteohub,2013-09-13 17:34:00,
2013-09-13 10:39:00,59.9,56.7,29.91,West,273,2.0,8.0,89,0.00,,,0.00,meteohub,2013-09-13 17:39:00,
2013-09-13 10:44:00,60.3,57.0,29.91,NNE,19,4.0,8.0,89,0.00,,,0.00,meteohub,2013-09-13 17:44:00,
2013-09-13 10:50:00,61.2,57.6,29.90,NNW,347,4.0,9.0,88,0.00,,,0.00,meteohub,2013-09-13 17:50:00,
2013-09-13 10:55:00,61.3,57.4,29.90,NNE,20,1.0,9.0,87,0.00,,,0.00,meteohub,2013-09-13 17:55:00,
2013-09-13 11:00:00,61.5,57.4,29.90,NNE,26,5.0,8.0,86,0.00,,,0.00,meteohub,2013-09-13 18:00:00,
2013-09-13 11:05:00,61.5,57.0,29.90,NNW,346,3.0,10.0,85,0.00,,,0.00,meteohub,2013-09-13 18:05:00,
2013-09-13 11:10:00,61.9,57.6,29.90,West,277,2.0,10.0,86,0.00,,,0.00,meteohub,2013-09-13 18:10:00,
2013-09-13 11:16:00,62.1,57.6,29.90,NNE,20,4.0,10.0,85,0.00,,,0.00,meteohub,2013-09-13 18:16:00,
2013-09-13 11:21:00,62.1,57.6,29.90,East,101,0.0,8.0,85,0.00,,,0.00,meteohub,2013-09-13 18:21:00,
2013-09-13 11:26:00,62.4,57.9,29.90,NW,318,4.0,8.0,85,0.00,,,0.00,meteohub,2013-09-13 18:26:00,
2013-09-13 11:31:00,62.2,57.0,29.90,East,83,2.0,7.0,83,0.00,,,0.00,meteohub,2013-09-13 18:31:00,
2013-09-13 11:36:00,62.1,57.2,29.90,ENE,60,1.0,7.0,84,0.00,,,0.00,meteohub,2013-09-13 18:36:00,
2013-09-13 11:41:00,62.4,57.9,29.89,North,349,3.0,8.0,85,0.00,,,0.00,meteohub,2013-09-13 18:41:00,
2013-09-13 11:46:00,62.8,57.6,29.89,North,356,5.0,8.0,83,0.00,,,0.00,meteohub,2013-09-13 18:46:00,
2013-09-13 11:51:00,63.0,57.7,29.89,North,5,8.0,8.0,83,0.00,,,0.00,meteohub,2013-09-13 18:51:00,
2013-09-13 11:56:00,62.4,57.6,29.89,North,4,9.0,10.0,84,0.00,,,0.00,meteohub,2013-09-13 18:56:00,
2013-09-13 12:02:00,62.2,57.4,29.89,NNW,328,2.0,10.0,84,0.00,,,0.00,meteohub,2013-09-13 19:02:00,
2013-09-13 12:07:00,62.6,57.7,29.89,NE,56,0.0,12.0,84,0.00,,,0.00,meteohub,2013-09-13 19:07:00,
2013-09-13 12:12:00,63.3,57.7,29.88,NNE,18,1.0,12.0,82,0.00,,,0.00,meteohub,2013-09-13 19:12:00,
2013-09-13 12:17:00,63.3,57.7,29.88,NW,309,3.0,12.0,82,0.00,,,0.00,meteohub,2013-09-13 19:17:00,
2013-09-13 12:22:00,63.3,57.7,29.88,NW,312,2.0,8.0,82,0.00,,,0.00,meteohub,2013-09-13 19:22:00,
2013-09-13 12:27:00,63.7,58.1,29.88,NNW,327,3.0,8.0,82,0.00,,,0.00,meteohub,2013-09-13 19:27:00,
2013-09-13 12:32:00,63.9,57.9,29.88,NW,320,3.0,7.0,81,0.00,,,0.00,meteohub,2013-09-13 19:32:00,
2013-09-13 12:37:00,63.9,57.9,29.88,NNE,12,7.0,11.0,81,0.00,,,0.00,meteohub,2013-09-13 19:37:00,
2013-09-13 12:42:00,63.7,58.1,29.88,NE,44,1.0,12.0,82,0.00,,,0.00,meteohub,2013-09-13 19:42:00,
2013-09-13 12:47:00,63.7,57.7,29.88,East,91,2.0,12.0,81,0.00,,,0.00,meteohub,2013-09-13 19:47:00,
2013-09-13 12:52:00,63.9,58.3,29.88,SSW,205,0.0,12.0,82,0.00,,,0.00,meteohub,2013-09-13 19:52:00,
2013-09-13 12:57:00,64.0,58.1,29.87,NNW,335,2.0,7.0,81,0.00,,,0.00,meteohub,2013-09-13 19:57:00,
2013-09-13 13:02:00,64.6,59.0,29.87,NNE,15,9.0,9.0,82,0.00,,,0.00,meteohub,2013-09-13 20:02:00,
2013-09-13 13:07:00,64.2,58.3,29.87,East,96,0.0,12.0,81,0.00,,,0.00,meteohub,2013-09-13 20:07:00,
2013-09-13 13:12:00,64.2,58.6,29.87,North,9,3.0,12.0,82,0.00,,,0.00,meteohub,2013-09-13 20:12:00,
2013-09-13 13:17:00,64.0,58.5,29.87,NE,49,4.0,12.0,82,0.00,,,0.00,meteohub,2013-09-13 20:17:00,
2013-09-13 13:22:00,63.9,58.3,29.87,NW,316,9.0,10.0,82,0.00,,,0.00,meteohub,2013-09-13 20:22:00,
2013-09-13 13:27:00,63.9,58.3,29.87,NNW,340,3.0,10.0,82,0.00,,,0.00,meteohub,2013-09-13 20:27:00,
2013-09-13 13:32:00,63.1,57.9,29.87,NNW,338,3.0,10.0,83,0.00,,,0.00,meteohub,2013-09-13 20:32:00,
2013-09-13 13:37:00,62.6,57.4,29.86,North,11,11.0,14.0,83,0.00,,,0.00,meteohub,2013-09-13 20:37:00,
2013-09-13 13:42:00,62.4,57.9,29.86,North,1,5.0,16.0,85,0.00,,,0.00,meteohub,2013-09-13 20:42:00,
2013-09-13 13:47:00,62.6,58.1,29.86,North,6,3.0,17.0,85,0.00,,,0.00,meteohub,2013-09-13 20:47:00,
2013-09-13 13:52:00,62.8,57.9,29.86,North,359,7.0,17.0,84,0.00,,,0.00,meteohub,2013-09-13 20:52:00,
2013-09-13 13:57:00,63.0,58.1,29.86,NNW,343,12.0,16.0,84,0.00,,,0.00,meteohub,2013-09-13 20:57:00,
2013-09-13 14:02:00,62.6,57.7,29.85,North,359,7.0,16.0,84,0.00,,,0.00,meteohub,2013-09-13 21:02:00,
2013-09-13 14:07:00,63.0,58.1,29.85,NNE,20,2.0,15.0,84,0.00,,,0.00,meteohub,2013-09-13 21:07:00,
2013-09-13 14:12:00,63.5,58.6,29.85,NNE,24,1.0,14.0,84,0.00,,,0.00,meteohub,2013-09-13 21:12:00,
2013-09-13 14:17:00,63.9,58.6,29.85,NNW,335,4.0,13.0,83,0.00,,,0.00,meteohub,2013-09-13 21:17:00,
2013-09-13 14:22:00,63.9,58.6,29.84,SSE,152,3.0,14.0,83,0.00,,,0.00,meteohub,2013-09-13 21:22:00,
2013-09-13 14:27:00,64.0,58.1,29.84,NE,46,1.0,14.0,81,0.00,,,0.00,meteohub,2013-09-13 21:27:00,
2013-09-13 14:32:00,64.2,58.3,29.84,NE,35,0.0,14.0,81,0.00,,,0.00,meteohub,2013-09-13 21:32:00,
2013-09-13 14:37:00,64.2,58.3,29.84,ESE,113,2.0,11.0,81,0.00,,,0.00,meteohub,2013-09-13 21:37:00,
2013-09-13 14:42:00,64.0,58.5,29.84,NNE,15,7.0,18.0,82,0.00,,,0.00,meteohub,2013-09-13 21:42:00,
2013-09-13 14:47:00,63.9,58.3,29.84,North,10,9.0,18.0,82,0.00,,,0.00,meteohub,2013-09-13 21:47:00,
2013-09-13 14:52:00,63.9,58.3,29.83,NNW,333,6.0,18.0,82,0.00,,,0.00,meteohub,2013-09-13 21:52:00,
2013-09-13 14:57:00,63.5,57.9,29.83,WNW,283,7.0,16.0,82,0.00,,,0.00,meteohub,2013-09-13 21:57:00,
2013-09-13 15:02:00,63.1,57.9,29.83,North,6,3.0,16.0,83,0.00,,,0.00,meteohub,2013-09-13 22:02:00,
2013-09-13 15:07:00,63.1,57.9,29.83,North,9,6.0,17.0,83,0.00,,,0.00,meteohub,2013-09-13 22:07:00,
2013-09-13 15:12:00,63.1,57.9,29.82,North,11,3.0,17.0,83,0.00,,,0.00,meteohub,2013-09-13 22:12:00,
2013-09-13 15:17:00,63.0,58.1,29.82,NE,56,3.0,17.0,84,0.00,,,0.00,meteohub,2013-09-13 22:17:00,
2013-09-13 15:22:00,63.0,57.7,29.82,North,356,10.0,14.0,83,0.00,,,0.00,meteohub,2013-09-13 22:22:00,
2013-09-13 15:27:00,63.1,58.3,29.82,WNW,284,7.0,18.0,84,0.00,,,0.00,meteohub,2013-09-13 22:27:00,
2013-09-13 15:32:00,63.1,57.9,29.82,NNE,19,5.0,20.0,83,0.00,,,0.00,meteohub,2013-09-13 22:32:00,
2013-09-13 15:37:00,63.1,57.9,29.81,NNE,32,4.0,20.0,83,0.00,,,0.00,meteohub,2013-09-13 22:37:00,
2013-09-13 15:42:00,62.8,57.9,29.81,NNE,15,6.0,20.0,84,0.00,,,0.00,meteohub,2013-09-13 22:42:00,
2013-09-13 15:47:00,62.8,57.9,29.81,NNW,332,6.0,16.0,84,0.00,,,0.00,meteohub,2013-09-13 22:47:00,
2013-09-13 15:52:00,63.0,58.1,29.81,NNW,340,12.0,17.0,84,0.00,,,0.00,meteohub,2013-09-13 22:52:00,
2013-09-13 15:57:00,62.8,57.9,29.81,NE,56,7.0,17.0,84,0.00,,,0.00,meteohub,2013-09-13 22:57:00,
2013-09-13 16:02:00,62.6,57.7,29.81,NNE,19,8.0,18.0,84,0.00,,,0.00,meteohub,2013-09-13 23:02:00,
2013-09-13 16:07:00,62.4,57.9,29.81,North,11,9.0,20.0,85,0.00,,,0.00,meteohub,2013-09-13 23:07:00,
2013-09-13 16:12:00,62.1,57.6,29.81,North,4,16.0,20.0,85,0.00,,,0.00,meteohub,2013-09-13 23:12:00,
2013-09-13 16:17:00,62.1,57.7,29.81,WNW,288,2.0,20.0,86,0.00,,,0.00,meteohub,2013-09-13 23:17:00,
2013-09-13 16:22:00,61.9,57.6,29.80,NNW,331,9.0,19.0,86,0.00,,,0.00,meteohub,2013-09-13 23:22:00,
2013-09-13 16:27:00,61.9,57.9,29.81,NE,54,7.0,22.0,87,0.00,,,0.00,meteohub,2013-09-13 23:27:00,
2013-09-13 16:32:00,61.9,57.9,29.80,NNW,333,9.0,22.0,87,0.00,,,0.00,meteohub,2013-09-13 23:32:00,
2013-09-13 16:37:00,61.9,57.9,29.80,North,11,6.0,22.0,87,0.00,,,0.00,meteohub,2013-09-13 23:37:00,
2013-09-13 16:42:00,61.5,57.4,29.80,NNW,342,8.0,23.0,86,0.00,,,0.00,meteohub,2013-09-13 23:42:00,
2013-09-13 16:47:00,61.5,57.6,29.80,NW,323,9.0,23.0,87,0.00,,,0.00,meteohub,2013-09-13 23:47:00,
2013-09-13 16:52:00,61.5,57.4,29.80,NNW,333,7.0,23.0,86,0.00,,,0.00,meteohub,2013-09-13 23:52:00,
2013-09-13 16:57:00,61.3,57.4,29.79,North,352,6.0,21.0,87,0.00,,,0.00,meteohub,2013-09-13 23:57:00,
2013-09-13 17:02:00,61.7,57.4,29.80,NNW,340,6.0,20.0,86,0.00,,,0.00,meteohub,2013-09-14 00:02:00,
2013-09-13 17:07:00,61.5,57.4,29.79,WNW,297,7.0,20.0,86,0.00,,,0.00,meteohub,2013-09-14 00:07:00,
2013-09-13 17:12:00,61.5,57.4,29.80,ENE,72,6.0,20.0,86,0.00,,,0.00,meteohub,2013-09-14 00:12:00,
2013-09-13 17:17:00,61.5,57.6,29.80,NNE,15,9.0,19.0,87,0.00,,,0.00,meteohub,2013-09-14 00:17:00,
2013-09-13 17:22:00,61.5,57.6,29.80,NW,307,4.0,18.0,87,0.00,,,0.00,meteohub,2013-09-14 00:22:00,
2013-09-13 17:27:00,61.5,57.4,29.79,NE,52,6.0,18.0,86,0.00,,,0.00,meteohub,2013-09-14 00:27:00,
2013-09-13 17:32:00,61.5,57.4,29.79,ENE,61,6.0,16.0,86,0.00,,,0.00,meteohub,2013-09-14 00:32:00,
2013-09-13 17:37:00,61.3,57.2,29.80,SW,217,10.0,13.0,86,0.00,,,0.00,meteohub,2013-09-14 00:37:00,
2013-09-13 17:42:00,61.2,57.2,29.79,NNW,347,12.0,18.0,87,0.00,,,0.00,meteohub,2013-09-14 00:42:00,
2013-09-13 17:47:00,60.6,56.7,29.80,NW,306,9.0,18.0,87,0.00,,,0.00,meteohub,2013-09-14 00:47:00,
2013-09-13 17:52:00,60.4,56.8,29.80,NW,324,1.0,18.0,88,0.00,,,0.00,meteohub,2013-09-14 00:52:00,
2013-09-13 17:57:00,60.4,56.8,29.80,WNW,298,5.0,17.0,88,0.00,,,0.00,meteohub,2013-09-14 00:57:00,
2013-09-13 18:02:00,60.3,56.7,29.79,North,354,5.0,16.0,88,0.00,,,0.00,meteohub,2013-09-14 01:02:00,
2013-09-13 18:07:00,60.1,56.8,29.79,North,0,4.0,15.0,89,0.00,,,0.00,meteohub,2013-09-14 01:07:00,
2013-09-13 18:12:00,59.7,56.5,29.79,NNW,330,8.0,15.0,89,0.00,,,0.00,meteohub,2013-09-14 01:12:00,
2013-09-13 18:17:00,59.5,56.3,29.78,North,354,5.0,15.0,89,0.00,,,0.00,meteohub,2013-09-14 01:17:00,
2013-09-13 18:22:00,59.4,56.5,29.78,NNE,26,4.0,13.0,90,0.00,,,0.00,meteohub,2013-09-14 01:22:00,
2013-09-13 18:27:00,59.4,56.5,29.78,NNW,348,6.0,13.0,90,0.00,,,0.00,meteohub,2013-09-14 01:27:00,
2013-09-13 18:32:00,59.0,56.1,29.78,NNW,347,4.0,24.0,90,0.00,,,0.00,meteohub,2013-09-14 01:32:00,
2013-09-13 18:37:00,58.8,56.1,29.78,North,6,7.0,24.0,91,0.00,,,0.00,meteohub,2013-09-14 01:37:00,
2013-09-13 18:42:00,58.6,55.9,29.79,NNW,333,9.0,24.0,91,0.00,,,0.00,meteohub,2013-09-14 01:42:00,
2013-09-13 18:47:00,58.6,55.9,29.79,WNW,292,3.0,21.0,91,0.00,,,0.00,meteohub,2013-09-14 01:47:00,
2013-09-13 18:52:00,58.5,55.8,29.79,North,1,12.0,21.0,91,0.00,,,0.00,meteohub,2013-09-14 01:52:00,
2013-09-13 18:57:00,58.5,56.1,29.78,North,352,4.0,21.0,92,0.00,,,0.00,meteohub,2013-09-14 01:57:00,
2013-09-13 19:02:00,58.5,56.1,29.78,NE,46,1.0,16.0,92,0.00,,,0.00,meteohub,2013-09-14 02:02:00,
2013-09-13 19:07:00,58.5,56.1,29.79,NNE,16,5.0,16.0,92,0.00,,,0.00,meteohub,2013-09-14 02:07:00,
2013-09-13 19:12:00,58.5,56.1,29.79,North,358,6.0,13.0,92,0.00,,,0.00,meteohub,2013-09-14 02:12:00,
2013-09-13 19:17:00,58.5,56.1,29.79,NNE,30,6.0,17.0,92,0.00,,,0.00,meteohub,2013-09-14 02:17:00,
2013-09-13 19:22:00,58.3,55.9,29.78,North,349,8.0,17.0,92,0.00,,,0.00,meteohub,2013-09-14 02:22:00,
2013-09-13 19:27:00,58.3,55.9,29.78,NNW,342,5.0,17.0,92,0.00,,,0.00,meteohub,2013-09-14 02:27:00,
2013-09-13 19:32:00,58.3,55.9,29.78,NE,36,4.0,15.0,92,0.00,,,0.00,meteohub,2013-09-14 02:32:00,
2013-09-13 19:37:00,58.1,55.8,29.78,North,352,6.0,16.0,92,0.00,,,0.00,meteohub,2013-09-14 02:37:00,
2013-09-13 19:42:00,58.1,56.1,29.78,NNW,346,4.0,16.0,93,0.00,,,0.00,meteohub,2013-09-14 02:42:00,
2013-09-13 19:47:00,57.9,55.6,29.78,ENE,64,2.0,16.0,92,0.00,,,0.00,meteohub,2013-09-14 02:47:00,
2013-09-13 19:52:00,57.9,55.9,29.78,NNE,23,8.0,12.0,93,0.00,,,0.00,meteohub,2013-09-14 02:52:00,
2013-09-13 19:57:00,57.9,55.9,29.78,NNE,22,1.0,16.0,93,0.00,,,0.00,meteohub,2013-09-14 02:57:00,
2013-09-13 20:02:00,57.9,55.9,29.78,NW,324,9.0,16.0,93,0.00,,,0.00,meteohub,2013-09-14 03:02:00,
2013-09-13 20:07:00,57.7,55.8,29.78,NNE,15,13.0,13.0,93,0.00,,,0.00,meteohub,2013-09-14 03:07:00,
2013-09-13 20:12:00,57.7,55.8,29.79,NE,44,2.0,18.0,93,0.00,,,0.00,meteohub,2013-09-14 03:12:00,
2013-09-13 20:17:00,57.7,55.8,29.79,NNW,348,10.0,18.0,93,0.00,,,0.00,meteohub,2013-09-14 03:17:00,
2013-09-13 20:22:00,57.7,55.8,29.79,ESE,113,0.0,14.0,93,0.00,,,0.00,meteohub,2013-09-14 03:22:00,
2013-09-13 20:27:00,57.6,55.6,29.79,NNE,29,4.0,11.0,93,0.00,,,0.00,meteohub,2013-09-14 03:27:00,
2013-09-13 20:32:00,57.6,55.8,29.79,NNW,340,5.0,11.0,94,0.00,,,0.00,meteohub,2013-09-14 03:32:00,
2013-09-13 20:37:00,57.6,55.8,29.80,North,0,12.0,12.0,94,0.00,,,0.00,meteohub,2013-09-14 03:37:00,
2013-09-13 20:42:00,57.4,55.6,29.80,NNW,346,5.0,14.0,94,0.00,,,0.00,meteohub,2013-09-14 03:42:00,
2013-09-13 20:47:00,57.4,55.6,29.80,North,352,7.0,14.0,94,0.00,,,0.00,meteohub,2013-09-14 03:47:00,
2013-09-13 20:52:00,57.4,55.6,29.80,NNW,333,9.0,14.0,94,0.00,,,0.00,meteohub,2013-09-14 03:52:00,
2013-09-13 20:57:00,57.4,55.6,29.80,North,349,5.0,13.0,94,0.00,,,0.00,meteohub,2013-09-14 03:57:00,
2013-09-13 21:01:00,57.4,55.6,29.80,NNE,30,11.0,13.0,94,0.00,,,0.00,meteohub,2013-09-14 04:01:00,
2013-09-13 21:03:00,57.2,55.4,29.80,NW,314,5.0,13.0,94,0.00,,,0.00,meteohub,2013-09-14 04:03:00,
2013-09-13 21:05:00,57.2,55.4,29.80,NW,316,1.0,13.0,94,0.00,,,0.00,meteohub,2013-09-14 04:05:00,
2013-09-13 21:10:00,57.2,55.4,29.80,NW,319,3.0,13.0,94,0.00,,,0.00,meteohub,2013-09-14 04:10:00,
2013-09-13 21:12:00,57.2,55.4,29.80,North,358,1.0,13.0,94,0.00,,,0.00,meteohub,2013-09-14 04:12:00,
2013-09-13 21:18:00,57.2,55.4,29.80,North,352,3.0,12.0,94,0.00,,,0.00,meteohub,2013-09-14 04:18:00,
2013-09-13 21:23:00,57.2,55.4,29.80,North,349,2.0,11.0,94,0.00,,,0.00,meteohub,2013-09-14 04:23:00,
2013-09-13 21:28:00,57.2,55.4,29.80,North,352,4.0,11.0,94,0.00,,,0.00,meteohub,2013-09-14 04:28:00,
2013-09-13 21:33:00,57.2,55.4,29.80,NNW,328,1.0,11.0,94,0.00,,,0.00,meteohub,2013-09-14 04:33:00,
2013-09-13 21:38:00,57.4,55.6,29.80,WNW,284,5.0,11.0,94,0.00,,,0.00,meteohub,2013-09-14 04:38:00,
2013-09-13 21:43:00,57.2,55.4,29.80,East,91,0.0,10.0,94,0.00,,,0.00,meteohub,2013-09-14 04:43:00,
2013-09-13 21:48:00,57.2,55.4,29.80,NW,307,9.0,10.0,94,0.00,,,0.00,meteohub,2013-09-14 04:48:00,
2013-09-13 21:53:00,57.4,55.6,29.80,North,358,1.0,11.0,94,0.00,,,0.00,meteohub,2013-09-14 04:53:00,
2013-09-13 21:58:00,57.4,55.6,29.80,NNW,333,3.0,11.0,94,0.00,,,0.00,meteohub,2013-09-14 04:58:00,
2013-09-13 22:03:00,57.2,55.4,29.80,NW,305,5.0,11.0,94,0.00,,,0.00,meteohub,2013-09-14 05:03:00,
2013-09-13 22:09:00,57.2,55.4,29.80,NNW,334,7.0,13.0,94,0.00,,,0.00,meteohub,2013-09-14 05:09:00,
2013-09-13 22:14:00,57.0,55.2,29.80,NNW,347,4.0,13.0,94,0.00,,,0.00,meteohub,2013-09-14 05:14:00,
2013-09-13 22:19:00,57.0,55.2,29.80,North,5,5.0,14.0,94,0.00,,,0.00,meteohub,2013-09-14 05:19:00,
2013-09-13 22:24:00,57.0,55.2,29.80,NNE,15,1.0,15.0,94,0.00,,,0.00,meteohub,2013-09-14 05:24:00,
2013-09-13 22:29:00,57.0,55.6,29.80,NNE,33,5.0,15.0,95,0.00,,,0.00,meteohub,2013-09-14 05:29:00,
2013-09-13 22:34:00,57.0,55.6,29.81,North,349,3.0,15.0,95,0.00,,,0.00,meteohub,2013-09-14 05:34:00,
2013-09-13 22:39:00,57.0,55.6,29.81,NNE,19,6.0,10.0,95,0.00,,,0.00,meteohub,2013-09-14 05:39:00,
2013-09-13 22:44:00,57.0,55.6,29.81,NNW,335,2.0,10.0,95,0.00,,,0.00,meteohub,2013-09-14 05:44:00,
2013-09-13 22:49:00,57.0,55.6,29.81,NNE,20,2.0,14.0,95,0.00,,,0.00,meteohub,2013-09-14 05:49:00,
2013-09-13 22:54:00,57.0,55.6,29.81,NNW,342,1.0,14.0,95,0.00,,,0.00,meteohub,2013-09-14 05:54:00,
2013-09-13 22:59:00,57.0,55.6,29.80,NNW,333,1.0,14.0,95,0.00,,,0.00,meteohub,2013-09-14 05:59:00,
2013-09-13 23:05:00,57.0,55.6,29.80,NNE,32,5.0,13.0,95,0.00,,,0.00,meteohub,2013-09-14 06:05:00,
2013-09-13 23:10:00,57.0,55.6,29.81,North,11,4.0,11.0,95,0.00,,,0.00,meteohub,2013-09-14 06:10:00,
2013-09-13 23:15:00,57.0,55.6,29.80,North,354,6.0,14.0,95,0.00,,,0.00,meteohub,2013-09-14 06:15:00,
2013-09-13 23:20:00,57.0,55.6,29.80,NNW,330,5.0,14.0,95,0.00,,,0.00,meteohub,2013-09-14 06:20:00,
2013-09-13 23:25:00,57.0,55.6,29.80,North,356,6.0,14.0,95,0.00,,,0.00,meteohub,2013-09-14 06:25:00,
2013-09-13 23:30:00,56.8,55.4,29.80,WNW,301,8.0,12.0,95,0.00,,,0.00,meteohub,2013-09-14 06:30:00,
2013-09-13 23:35:00,57.0,55.6,29.80,NNW,338,3.0,18.0,95,0.00,,,0.00,meteohub,2013-09-14 06:35:00,
2013-09-13 23:40:00,57.0,55.6,29.80,WNW,291,6.0,18.0,95,0.00,,,0.00,meteohub,2013-09-14 06:40:00,
2013-09-13 23:45:00,56.8,55.4,29.80,NNW,346,6.0,12.0,95,0.00,,,0.00,meteohub,2013-09-14 06:45:00,
2013-09-13 23:50:00,56.8,55.4,29.80,NNW,333,2.0,12.0,95,0.00,,,0.00,meteohub,2013-09-14 06:50:00,
2013-09-13 23:55:00,56.8,55.4,29.80,NNW,335,7.0,13.0,95,0.00,,,0.00,meteohub,2013-09-14 06:55:00,